Terminal Aerodrome Forecast
Issued by NWS Mt. Holly, NJ

Home | Current Version | Previous Version | Text Only | Print | Product List | Glossary On
Versions: 1 2 3 4 5 6 7 8 9 10 11 12 13 14 15 16 17 18 19 20 21 22 23 24 25 26 27 28 29 30 31 32 33 34 35 36 37 38 39 40 41 42 43 44 45 46 47 48 49 50
785
FTAK31 PANC 260536
TAFABE
TAF
PABE 260536Z 2606/2706 21010G20KT P6SM FEW025 BKN050
      TEMPO 2606/2610 17010KT BKN020
     FM261000 18011G22KT 4SM -RA BR SCT004 BKN020
     FM261500 15009G20KT 2SM -RA BR SCT007 BKN015
     FM261800 13010G20KT P6SM -SHRA SCT020 OVC040=

USA.gov is the U.S. government's official web portal to all federal, state and local government web resources and services.